createdAt,value
2018-05-24T00:02:13.409Z,101278.82
2018-05-24T00:04:41.679Z,101271.05
2018-05-24T00:07:09.961Z,101280.06
2018-05-24T00:09:38.230Z,101271.75
2018-05-24T00:12:06.510Z,101266.67
2018-05-24T00:14:34.790Z,101260.69
2018-05-24T00:17:03.057Z,101263.85
2018-05-24T00:19:31.354Z,101262.72
2018-05-24T00:21:59.618Z,101264.73
2018-05-24T00:24:27.890Z,101262.38
2018-05-24T00:26:56.176Z,101260.78
2018-05-24T00:29:24.443Z,101252.12
2018-05-24T00:31:52.736Z,101259.39
2018-05-24T00:34:20.999Z,101257.61
2018-05-24T00:36:49.266Z,101251.50
2018-05-24T00:39:17.553Z,101246.30
2018-05-24T00:41:45.831Z,101247.44
2018-05-24T00:44:14.115Z,101244.30
2018-05-24T00:46:42.385Z,101246.95
2018-05-24T00:49:10.661Z,101250.77
2018-05-24T00:51:38.942Z,101239.67
2018-05-24T00:54:07.214Z,101242.25
2018-05-24T00:56:35.499Z,101246.63
2018-05-24T00:59:03.774Z,101239.98
2018-05-24T01:01:32.039Z,101237.95
2018-05-24T01:04:00.317Z,101233.97
2018-05-24T01:06:28.594Z,101230.23
2018-05-24T01:08:56.871Z,101230.44
2018-05-24T01:11:25.147Z,101236.05
2018-05-24T01:13:53.418Z,101230.59
2018-05-24T01:16:21.694Z,101227.72
2018-05-24T01:18:49.974Z,101231.84
2018-05-24T01:21:18.247Z,101228.28
2018-05-24T01:23:46.539Z,101224.47
2018-05-24T01:26:14.810Z,101222.25
2018-05-24T01:28:43.089Z,101225.92
2018-05-24T01:31:11.365Z,101222.27
2018-05-24T01:33:39.657Z,101213.30
2018-05-24T01:36:07.930Z,101215.78
2018-05-24T01:38:36.202Z,101221.85
2018-05-24T01:41:04.493Z,101222.28
2018-05-24T01:43:32.766Z,101228.39
2018-05-24T01:46:01.053Z,101221.77
2018-05-24T01:48:29.322Z,101228.41
2018-05-24T01:50:57.633Z,101222.92
2018-05-24T01:53:25.907Z,101220.72
2018-05-24T01:55:54.177Z,101224.09
2018-05-24T01:58:22.462Z,101218.70
2018-05-24T02:00:50.730Z,101215.47
2018-05-24T02:03:19.014Z,101215.99
2018-05-24T02:05:47.304Z,101216.04
2018-05-24T02:08:15.607Z,101224.73
2018-05-24T02:10:43.886Z,101215.23
2018-05-24T02:13:12.155Z,101222.10
2018-05-24T02:15:40.558Z,101223.61
2018-05-24T02:18:08.818Z,101219.73
2018-05-24T02:20:37.106Z,101222.53
2018-05-24T02:23:05.385Z,101218.09
2018-05-24T02:25:33.673Z,101219.94
2018-05-24T02:28:01.942Z,101223.98
2018-05-24T02:30:30.210Z,101217.04
2018-05-24T02:32:58.489Z,101211.05
2018-05-24T02:35:26.762Z,101222.17
2018-05-24T02:37:55.038Z,101219.05
2018-05-24T02:40:23.311Z,101220.72
2018-05-24T02:42:51.602Z,101224.05
2018-05-24T02:45:19.878Z,101235.53
2018-05-24T02:47:49.826Z,101224.84
2018-05-24T02:50:18.114Z,101225.79
2018-05-24T02:52:46.406Z,101224.53
2018-05-24T02:55:15.167Z,101222.65
2018-05-24T02:57:43.430Z,101220.23
2018-05-24T03:00:11.734Z,101223.96
2018-05-24T03:02:40.010Z,101221.11
2018-05-24T03:05:08.281Z,101226.95
2018-05-24T03:07:36.565Z,101219.91
2018-05-24T03:10:04.841Z,101217.16
2018-05-24T03:12:33.129Z,101215.98
2018-05-24T03:15:01.407Z,101214.86
2018-05-24T03:17:29.694Z,101216.42
2018-05-24T03:19:57.957Z,101214.50
2018-05-24T03:22:26.234Z,101222.35
2018-05-24T03:24:54.515Z,101218.61
2018-05-24T03:27:22.793Z,101212.42
2018-05-24T03:29:51.098Z,101222.64
2018-05-24T03:32:19.966Z,101217.78
2018-05-24T03:34:48.258Z,101210.56
2018-05-24T03:37:16.557Z,101216.97
2018-05-24T03:39:44.840Z,101213.67
2018-05-24T03:42:13.105Z,101217.91
2018-05-24T03:44:41.614Z,101220.90
2018-05-24T03:47:09.882Z,101216.92
2018-05-24T03:49:38.170Z,101218.98
2018-05-24T03:52:06.495Z,101219.38
2018-05-24T03:54:34.749Z,101212.38
2018-05-24T03:57:03.031Z,101212.34
2018-05-24T04:02:52.924Z,101208.23
2018-05-24T04:05:21.293Z,101213.66
2018-05-24T04:07:49.538Z,101206.33
2018-05-24T04:10:17.814Z,101204.41
2018-05-24T04:12:48.433Z,101209.45
2018-05-24T04:15:16.705Z,101208.52
2018-05-24T04:17:45.001Z,101203.71
2018-05-24T04:20:13.273Z,101210.03
2018-05-24T04:22:41.552Z,101195.09
2018-05-24T04:25:09.837Z,101197.70
2018-05-24T04:27:38.114Z,101201.84
2018-05-24T04:30:06.410Z,101190.23
2018-05-24T04:32:34.685Z,101188.38
2018-05-24T04:35:02.965Z,101189.03
2018-05-24T04:37:31.250Z,101188.38
2018-05-24T04:39:59.533Z,101190.72
2018-05-24T04:42:27.813Z,101194.75
2018-05-24T04:44:56.128Z,101198.48
2018-05-24T04:47:24.419Z,101207.61
2018-05-24T04:49:52.744Z,101199.70
2018-05-24T04:52:21.016Z,101203.42
2018-05-24T04:54:49.395Z,101200.71
2018-05-24T04:57:17.674Z,101202.80
2018-05-24T04:59:45.950Z,101198.05
2018-05-24T05:02:14.224Z,101207.64
2018-05-24T05:04:43.882Z,101200.67
2018-05-24T05:07:12.154Z,101203.51
2018-05-24T05:09:41.006Z,101210.13
2018-05-24T05:12:09.290Z,101206.33
2018-05-24T05:14:37.634Z,101203.94
2018-05-24T05:17:05.858Z,101200.02
2018-05-24T05:19:34.233Z,101205.27
2018-05-24T05:22:02.440Z,101204.73
2018-05-24T05:24:30.717Z,101202.98
2018-05-24T05:26:58.998Z,101206.48
2018-05-24T05:29:27.286Z,101210.80
2018-05-24T05:31:55.561Z,101206.38
2018-05-24T05:34:23.854Z,101207.52
2018-05-24T05:36:52.217Z,101204.72
2018-05-24T05:39:20.434Z,101208.90
2018-05-24T05:41:48.714Z,101209.77
2018-05-24T05:44:16.986Z,101196.73
2018-05-24T05:46:45.280Z,101203.33
2018-05-24T05:49:15.574Z,101205.23
2018-05-24T05:51:43.858Z,101203.30
2018-05-24T05:54:12.137Z,101209.55
2018-05-24T05:56:40.442Z,101212.59
2018-05-24T05:59:08.734Z,101206.11
2018-05-24T06:01:37.056Z,101205.99
2018-05-24T06:04:05.331Z,101211.06
2018-05-24T06:06:33.631Z,101216.60
2018-05-24T06:09:01.920Z,101218.77
2018-05-24T06:11:30.198Z,101215.73
2018-05-24T06:13:58.677Z,101221.55
2018-05-24T06:16:26.852Z,101226.30
2018-05-24T06:18:55.130Z,101221.66
2018-05-24T06:21:23.413Z,101214.55
2018-05-24T06:23:51.691Z,101224.56
2018-05-24T06:26:19.969Z,101223.30
2018-05-24T06:28:48.241Z,101226.66
2018-05-24T06:31:16.531Z,101229.41
2018-05-24T06:33:44.814Z,101232.37
2018-05-24T06:36:13.090Z,101233.63
2018-05-24T06:38:41.374Z,101231.04
2018-05-24T06:41:09.658Z,101237.80
2018-05-24T06:43:37.941Z,101232.90
2018-05-24T06:46:06.218Z,101235.98
2018-05-24T06:48:34.521Z,101237.52
2018-05-24T06:51:02.806Z,101241.23
2018-05-24T06:53:31.090Z,101241.90
2018-05-24T06:55:59.380Z,101240.91
2018-05-24T06:58:27.661Z,101244.30
2018-05-24T07:00:55.953Z,101242.22
2018-05-24T07:03:24.278Z,101252.69
2018-05-24T07:05:52.622Z,101245.84
2018-05-24T07:08:20.861Z,101245.86
2018-05-24T07:10:49.147Z,101246.05
2018-05-24T07:13:17.442Z,101241.15
2018-05-24T07:15:45.714Z,101241.59
2018-05-24T07:18:13.997Z,101233.49
2018-05-24T07:20:42.266Z,101235.20
2018-05-24T07:23:10.557Z,101230.63
2018-05-24T07:25:38.825Z,101227.06
2018-05-24T07:28:07.101Z,101233.34
2018-05-24T07:30:35.386Z,101227.79
2018-05-24T07:33:03.666Z,101223.98
2018-05-24T07:35:31.955Z,101216.09
2018-05-24T07:38:00.246Z,101216.23
2018-05-24T07:40:28.530Z,101211.91
2018-05-24T07:42:56.811Z,101213.05
2018-05-24T07:45:25.074Z,101208.16
2018-05-24T07:47:53.361Z,101212.80
2018-05-24T07:50:25.830Z,101205.99
2018-05-24T07:52:54.094Z,101198.92
2018-05-24T07:55:22.370Z,101209.23
2018-05-24T07:57:50.649Z,101202.28
2018-05-24T08:00:18.922Z,101208.27
2018-05-24T08:02:47.212Z,101198.91
2018-05-24T08:05:15.494Z,101192.02
2018-05-24T08:07:43.771Z,101194.59
2018-05-24T08:10:12.058Z,101190.16
2018-05-24T08:12:40.326Z,101194.48
2018-05-24T08:15:08.618Z,101196.02
2018-05-24T08:17:36.885Z,101203.37
2018-05-24T08:20:05.154Z,101203.39
2018-05-24T08:22:33.534Z,101209.20
2018-05-24T08:25:01.718Z,101214.53
2018-05-24T08:27:30.030Z,101204.70
2018-05-24T08:29:58.303Z,101203.25
2018-05-24T08:32:26.590Z,101200.56
2018-05-24T08:34:54.862Z,101198.71
2018-05-24T08:37:23.136Z,101183.60
2018-05-24T08:39:51.413Z,101188.53
2018-05-24T08:42:20.364Z,101180.95
2018-05-24T08:44:48.642Z,101181.66
2018-05-24T08:47:16.948Z,101178.28
2018-05-24T08:49:45.193Z,101169.34
2018-05-24T08:52:13.488Z,101165.66
2018-05-24T08:54:41.763Z,101170.28
2018-05-24T08:57:10.038Z,101167.55
2018-05-24T08:59:38.418Z,101158.19
2018-05-24T09:02:06.693Z,101164.75
2018-05-24T09:04:34.988Z,101151.27
2018-05-24T09:07:03.278Z,101150.65
2018-05-24T09:09:31.542Z,101141.77
2018-05-24T09:11:59.809Z,101140.53
2018-05-24T09:14:28.099Z,101138.14
2018-05-24T09:17:06.298Z,101144.78
2018-05-24T09:19:34.577Z,101148.64
2018-05-24T09:22:02.854Z,101143.05
2018-05-24T09:24:31.151Z,101140.34
2018-05-24T09:26:59.419Z,101144.52
2018-05-24T09:29:27.714Z,101145.63
2018-05-24T09:31:55.974Z,101139.77
2018-05-24T09:34:24.241Z,101150.25
2018-05-24T09:36:52.538Z,101145.55
2018-05-24T09:39:20.811Z,101148.27
2018-05-24T09:41:49.136Z,101148.58
2018-05-24T09:44:17.407Z,101150.84
2018-05-24T09:46:45.678Z,101151.87
2018-05-24T09:49:13.957Z,101148.55
2018-05-24T09:51:42.234Z,101152.16
2018-05-24T09:54:10.517Z,101154.16
2018-05-24T09:56:38.786Z,101153.09
2018-05-24T09:59:07.083Z,101153.94
2018-05-24T10:01:35.358Z,101154.84
2018-05-24T10:04:03.637Z,101160.42
2018-05-24T10:06:31.928Z,101153.96
2018-05-24T10:09:00.198Z,101155.20
2018-05-24T10:11:28.478Z,101159.39
2018-05-24T10:13:56.749Z,101153.80
2018-05-24T10:16:25.118Z,101160.28
2018-05-24T10:18:53.311Z,101145.25
2018-05-24T10:21:21.596Z,101151.80
2018-05-24T10:23:49.878Z,101148.20
2018-05-24T10:26:18.162Z,101145.27
2018-05-24T10:28:46.465Z,101142.83
2018-05-24T10:31:14.745Z,101141.27
2018-05-24T10:33:43.027Z,101143.61
2018-05-24T10:36:11.285Z,101145.79
2018-05-24T10:38:39.621Z,101147.25
2018-05-24T10:41:07.908Z,101147.88
2018-05-24T10:43:36.787Z,101145.56
2018-05-24T10:46:05.075Z,101135.85
2018-05-24T10:48:33.349Z,101136.54
2018-05-24T10:51:02.625Z,101132.55
2018-05-24T10:53:30.830Z,101136.40
2018-05-24T10:55:59.177Z,101122.31
2018-05-24T10:58:27.431Z,101131.99
2018-05-24T11:00:55.699Z,101141.16
2018-05-24T11:03:24.100Z,101143.53
2018-05-24T11:05:52.246Z,101137.64
2018-05-24T11:08:20.530Z,101151.05
2018-05-24T11:10:48.817Z,101141.72
2018-05-24T11:13:17.093Z,101140.88
2018-05-24T11:15:45.377Z,101143.81
2018-05-24T11:18:13.646Z,101136.97
2018-05-24T11:20:41.935Z,101139.77
2018-05-24T11:23:10.209Z,101140.59
2018-05-24T11:25:38.497Z,101142.72
2018-05-24T11:28:06.770Z,101144.39
2018-05-24T11:30:35.046Z,101143.57
2018-05-24T11:33:03.350Z,101150.95
2018-05-24T11:38:27.425Z,101140.02
2018-05-24T11:44:08.640Z,101139.77
2018-05-24T11:46:39.032Z,101136.07
2018-05-24T11:49:09.195Z,101131.39
2018-05-24T11:51:43.151Z,101136.48
2018-05-24T11:54:11.441Z,101131.77
2018-05-24T11:56:39.712Z,101133.41
2018-05-24T11:59:08.998Z,101131.36
2018-05-24T12:01:37.298Z,101129.20
2018-05-24T12:04:05.586Z,101126.15
2018-05-24T12:06:33.874Z,101119.46
2018-05-24T12:09:02.150Z,101119.36
2018-05-24T12:11:30.439Z,101127.94
2018-05-24T12:13:58.757Z,101125.45
2018-05-24T12:16:27.065Z,101122.94
2018-05-24T12:18:55.344Z,101115.52
2018-05-24T12:21:23.637Z,101115.67
2018-05-24T12:23:52.071Z,101116.56
2018-05-24T12:26:20.221Z,101118.44
2018-05-24T12:28:48.511Z,101105.81
2018-05-24T12:31:16.787Z,101112.19
2018-05-24T12:33:45.069Z,101108.03
2018-05-24T12:36:13.345Z,101102.83
2018-05-24T12:38:41.636Z,101097.97
2018-05-24T12:41:09.953Z,101097.84
2018-05-24T12:43:38.233Z,101095.94
2018-05-24T12:46:06.522Z,101090.14
2018-05-24T12:48:34.803Z,101086.84
2018-05-24T12:51:03.096Z,101089.91
2018-05-24T12:53:31.378Z,101089.59
2018-05-24T12:55:59.662Z,101089.55
2018-05-24T12:58:27.954Z,101084.61
2018-05-24T13:00:56.246Z,101080.80
2018-05-24T13:03:24.525Z,101073.43
2018-05-24T13:05:52.806Z,101077.99
2018-05-24T13:08:21.100Z,101083.58
2018-05-24T13:10:49.369Z,101079.28
2018-05-24T13:13:17.710Z,101084.17
2018-05-24T13:15:45.990Z,101078.39
2018-05-24T13:18:14.280Z,101075.46
2018-05-24T13:20:42.570Z,101078.75
2018-05-24T13:23:10.878Z,101077.83
2018-05-24T13:25:39.157Z,101079.03
2018-05-24T13:28:07.437Z,101079.36
2018-05-24T13:30:35.747Z,101078.43
2018-05-24T13:33:04.070Z,101075.13
2018-05-24T13:35:32.354Z,101072.05
2018-05-24T13:38:00.637Z,101071.20
2018-05-24T13:40:28.965Z,101067.63
2018-05-24T13:42:57.215Z,101064.34
2018-05-24T13:45:25.509Z,101062.38
2018-05-24T13:47:53.787Z,101062.97
2018-05-24T13:50:22.066Z,101060.66
2018-05-24T13:52:50.354Z,101060.47
2018-05-24T13:55:18.637Z,101052.37
2018-05-24T13:57:47.413Z,101056.98
2018-05-24T14:00:15.710Z,101058.14
2018-05-24T14:02:44.017Z,101059.02
2018-05-24T14:05:12.293Z,101055.85
2018-05-24T14:07:40.577Z,101049.59
2018-05-24T14:10:08.874Z,101053.68
2018-05-24T14:12:37.158Z,101055.66
2018-05-24T14:15:05.448Z,101046.37
2018-05-24T14:17:33.837Z,101039.02
2018-05-24T14:20:02.125Z,101035.00
2018-05-24T14:22:30.409Z,101027.47
2018-05-24T14:24:58.702Z,101027.98
2018-05-24T14:27:26.985Z,101033.55
2018-05-24T14:29:55.277Z,101024.17
2018-05-24T14:32:23.553Z,101017.41
2018-05-24T14:34:51.837Z,101018.47
2018-05-24T14:37:20.121Z,101010.03
2018-05-24T14:39:48.397Z,101016.78
2018-05-24T14:42:16.685Z,101014.38
2018-05-24T14:44:44.960Z,101011.50
2018-05-24T14:47:13.245Z,101009.17
2018-05-24T14:49:41.945Z,101008.70
2018-05-24T14:52:10.297Z,101016.13
2018-05-24T14:54:38.576Z,101010.09
2018-05-24T14:57:06.854Z,101011.36
2018-05-24T14:59:35.139Z,101003.23
2018-05-24T15:02:03.409Z,101000.69
2018-05-24T15:04:31.706Z,101003.31
2018-05-24T15:07:00.066Z,101000.39
2018-05-24T15:09:28.350Z,100999.94
2018-05-24T15:11:56.617Z,100992.33
2018-05-24T15:14:24.909Z,100992.52
2018-05-24T15:16:53.187Z,100987.53
2018-05-24T15:19:21.459Z,100990.91
2018-05-24T15:21:49.738Z,100979.63
2018-05-24T15:24:18.010Z,100985.32
2018-05-24T15:26:46.298Z,100978.12
2018-05-24T15:29:14.570Z,100974.77
2018-05-24T15:31:42.853Z,100975.82
2018-05-24T15:34:11.122Z,100976.20
2018-05-24T15:36:39.407Z,100971.19
2018-05-24T15:39:07.702Z,100977.23
2018-05-24T15:41:35.977Z,100970.31
2018-05-24T15:44:04.277Z,100977.58
2018-05-24T15:46:32.617Z,100964.19
2018-05-24T15:49:00.866Z,100969.45
2018-05-24T15:51:29.135Z,100970.26
2018-05-24T15:53:57.425Z,100967.67
2018-05-24T15:56:25.697Z,100961.34
2018-05-24T15:58:53.970Z,100967.85
2018-05-24T16:01:22.250Z,100965.87
2018-05-24T16:03:50.526Z,100957.92
2018-05-24T16:06:18.804Z,100969.80
2018-05-24T16:08:47.085Z,100956.69
2018-05-24T16:11:15.382Z,100950.35
2018-05-24T16:13:43.657Z,100947.05
2018-05-24T16:16:12.242Z,100951.04
2018-05-24T16:18:40.530Z,100948.93
2018-05-24T16:21:08.814Z,100947.16
2018-05-24T16:23:37.106Z,100952.48
2018-05-24T16:26:05.389Z,100953.30
2018-05-24T16:28:33.713Z,100955.21
2018-05-24T16:31:01.967Z,100955.02
2018-05-24T16:33:30.250Z,100959.63
2018-05-24T16:35:58.538Z,100964.48
2018-05-24T16:38:26.822Z,100965.61
2018-05-24T16:40:55.115Z,100967.27
2018-05-24T16:43:23.377Z,100966.98
2018-05-24T16:45:51.686Z,100975.19
2018-05-24T16:48:20.035Z,100973.30
2018-05-24T16:50:48.319Z,100971.36
2018-05-24T16:53:16.602Z,100973.52
2018-05-24T16:55:44.873Z,100975.38
2018-05-24T16:58:13.169Z,100978.18
2018-05-24T17:00:41.447Z,100978.34
2018-05-24T17:03:09.734Z,100969.17
2018-05-24T17:05:38.019Z,100971.34
2018-05-24T17:08:06.306Z,100973.45
2018-05-24T17:10:34.687Z,100973.93
2018-05-24T17:13:03.026Z,100972.41
2018-05-24T17:15:31.306Z,100967.91
2018-05-24T17:17:59.581Z,100963.94
2018-05-24T17:20:27.878Z,100963.41
2018-05-24T17:22:56.149Z,100963.56
2018-05-24T17:25:24.452Z,100966.39
2018-05-24T17:27:52.741Z,100960.86
2018-05-24T17:30:21.053Z,100970.72
2018-05-24T17:32:49.337Z,100971.91
2018-05-24T17:35:17.598Z,100975.15
2018-05-24T17:37:45.889Z,100972.91
2018-05-24T17:40:14.157Z,100975.14
2018-05-24T17:42:42.434Z,100981.44
2018-05-24T17:45:10.713Z,100986.09
2018-05-24T17:47:38.978Z,100981.46
2018-05-24T17:50:07.394Z,100991.45
2018-05-24T17:52:35.658Z,100984.23
2018-05-24T17:55:03.987Z,100992.78
2018-05-24T17:57:32.227Z,100995.66
2018-05-24T18:00:00.502Z,100996.02
2018-05-24T18:02:28.795Z,100997.84
2018-05-24T18:04:57.072Z,100994.45
2018-05-24T18:07:25.364Z,100999.31
2018-05-24T18:09:53.654Z,100999.39
2018-05-24T18:12:21.962Z,100999.02
2018-05-24T18:14:50.287Z,101004.81
2018-05-24T18:17:18.509Z,101000.20
2018-05-24T18:19:46.810Z,101010.56
2018-05-24T18:22:20.807Z,101009.87
2018-05-24T18:24:49.109Z,101014.73
2018-05-24T18:27:17.402Z,101017.75
2018-05-24T18:29:45.721Z,101011.95
2018-05-24T18:32:13.993Z,101025.41
2018-05-24T18:34:42.274Z,101022.55
2018-05-24T18:37:10.581Z,101031.65
2018-05-24T18:39:38.869Z,101026.51
2018-05-24T18:42:07.150Z,101026.45
2018-05-24T18:44:35.461Z,101029.84
2018-05-24T18:47:03.742Z,101030.06
2018-05-24T18:49:32.021Z,101036.83
2018-05-24T18:52:00.304Z,101037.28
2018-05-24T18:54:28.581Z,101045.79
2018-05-24T18:56:56.857Z,101047.14
2018-05-24T18:59:25.148Z,101044.58
2018-05-24T19:01:53.446Z,101051.28
2018-05-24T19:04:21.697Z,101048.64
2018-05-24T19:06:50.137Z,101047.88
2018-05-24T19:09:18.402Z,101050.81
2018-05-24T19:11:46.685Z,101052.12
2018-05-24T19:14:14.994Z,101049.34
2018-05-24T19:16:43.277Z,101058.28
2018-05-24T19:19:11.541Z,101051.47
2018-05-24T19:21:39.830Z,101056.88
2018-05-24T19:24:08.094Z,101057.18
2018-05-24T19:26:36.399Z,101059.11
2018-05-24T19:29:04.645Z,101060.44
2018-05-24T19:31:32.905Z,101059.69
2018-05-24T19:34:01.202Z,101062.88
2018-05-24T19:36:29.470Z,101064.92
2018-05-24T19:38:57.765Z,101066.72
2018-05-24T19:41:26.033Z,101070.64
2018-05-24T19:43:54.311Z,101067.58
2018-05-24T19:46:22.591Z,101076.30
2018-05-24T19:48:50.904Z,101073.76
2018-05-24T19:51:19.174Z,101081.20
2018-05-24T19:53:47.445Z,101092.20
2018-05-24T19:56:15.805Z,101085.97
2018-05-24T19:58:44.125Z,101090.64
2018-05-24T20:01:12.412Z,101099.38
2018-05-24T20:03:40.705Z,101091.44
2018-05-24T20:06:08.977Z,101105.56
2018-05-24T20:08:37.266Z,101106.94
2018-05-24T20:11:05.547Z,101109.23
2018-05-24T20:13:33.809Z,101111.01
2018-05-24T20:16:02.090Z,101110.33
2018-05-24T20:18:30.360Z,101111.23
2018-05-24T20:20:58.664Z,101114.02
2018-05-24T20:23:27.038Z,101113.95
2018-05-24T20:25:55.302Z,101115.17
2018-05-24T20:28:23.578Z,101115.73
2018-05-24T20:30:51.865Z,101111.20
2018-05-24T20:33:20.178Z,101104.16
2018-05-24T20:35:48.458Z,101105.41
2018-05-24T20:38:16.726Z,101106.58
2018-05-24T20:40:45.039Z,101099.20
2018-05-24T20:43:13.305Z,101101.86
2018-05-24T20:45:41.590Z,101110.19
2018-05-24T20:48:09.871Z,101109.78
2018-05-24T20:50:38.182Z,101111.25
2018-05-24T20:53:06.430Z,101113.12
2018-05-24T20:55:34.714Z,101108.48
2018-05-24T20:58:03.039Z,101104.23
2018-05-24T21:00:31.303Z,101110.65
2018-05-24T21:02:59.569Z,101111.29
2018-05-24T21:05:27.989Z,101108.97
2018-05-24T21:07:56.265Z,101101.55
2018-05-24T21:10:24.566Z,101098.61
2018-05-24T21:12:52.839Z,101098.02
2018-05-24T21:15:21.119Z,101095.89
2018-05-24T21:17:49.408Z,101097.28
2018-05-24T21:20:17.687Z,101103.00
2018-05-24T21:22:45.982Z,101089.18
2018-05-24T21:25:14.263Z,101081.83
2018-05-24T21:27:42.531Z,101091.57
2018-05-24T21:30:10.815Z,101092.06
2018-05-24T21:32:39.080Z,101094.86
2018-05-24T21:35:07.363Z,101085.34
2018-05-24T21:37:35.630Z,101080.59
2018-05-24T21:40:03.931Z,101079.19
2018-05-24T21:42:32.294Z,101082.82
2018-05-24T21:45:00.600Z,101086.66
2018-05-24T21:47:28.837Z,101087.75
2018-05-24T21:49:57.105Z,101078.16
2018-05-24T21:52:25.391Z,101082.60
2018-05-24T21:54:53.873Z,101082.82
2018-05-24T21:57:22.158Z,101077.47
2018-05-24T21:59:50.425Z,101081.16
2018-05-24T22:02:18.707Z,101078.34
2018-05-24T22:04:46.984Z,101079.34
2018-05-24T22:07:15.258Z,101081.84
2018-05-24T22:09:43.537Z,101082.91
2018-05-24T22:12:11.802Z,101076.97
2018-05-24T22:14:40.086Z,101078.61
2018-05-24T22:17:08.376Z,101081.02
2018-05-24T22:19:36.644Z,101087.78
2018-05-24T22:22:04.917Z,101089.23
2018-05-24T22:24:33.190Z,101095.72
2018-05-24T22:27:01.471Z,101094.56
2018-05-24T22:29:29.798Z,101095.81
2018-05-24T22:31:58.039Z,101100.27
2018-05-24T22:34:26.314Z,101094.95
2018-05-24T22:36:54.578Z,101107.69
2018-05-24T22:39:22.866Z,101103.63
2018-05-24T22:41:51.146Z,101103.70
2018-05-24T22:44:19.438Z,101107.63
2018-05-24T22:46:47.709Z,101107.73
2018-05-24T22:49:15.989Z,101104.84
2018-05-24T22:51:44.273Z,101110.15
2018-05-24T22:54:12.591Z,101115.63
2018-05-24T22:56:40.879Z,101113.73
2018-05-24T22:59:09.149Z,101102.64
2018-05-24T23:01:37.446Z,101104.95
2018-05-24T23:04:05.716Z,101103.08
2018-05-24T23:06:33.986Z,101101.31
2018-05-24T23:09:02.270Z,101098.11
2018-05-24T23:11:30.537Z,101099.92
2018-05-24T23:13:58.813Z,101094.22
2018-05-24T23:16:27.086Z,101097.47
2018-05-24T23:18:55.373Z,101092.72
2018-05-24T23:21:23.646Z,101082.17
2018-05-24T23:23:51.919Z,101087.16
2018-05-24T23:26:20.202Z,101088.04
2018-05-24T23:28:48.479Z,101080.03
2018-05-24T23:31:16.778Z,101080.56
2018-05-24T23:33:45.062Z,101083.05
2018-05-24T23:36:13.354Z,101081.92
2018-05-24T23:38:41.676Z,101082.88
2018-05-24T23:41:09.906Z,101081.27
2018-05-24T23:43:38.189Z,101086.38
2018-05-24T23:46:06.471Z,101092.89
2018-05-24T23:48:34.755Z,101097.77
2018-05-24T23:51:03.040Z,101094.62
2018-05-24T23:53:31.334Z,101106.16
2018-05-24T23:55:59.626Z,101100.94
2018-05-24T23:58:27.898Z,101100.11
